sensor_id;sensor_type;location;lat;lon;timestamp;P1;durP1;ratioP1;P2;durP2;ratioP2
49934;SDS011;39898;41.762;26.200;2024-01-27T00:00:41;41.88;;;12.70;;
49934;SDS011;39898;41.762;26.200;2024-01-27T00:03:08;39.95;;;13.50;;
49934;SDS011;39898;41.762;26.200;2024-01-27T00:05:35;42.33;;;12.10;;
49934;SDS011;39898;41.762;26.200;2024-01-27T00:08:01;36.42;;;11.65;;
49934;SDS011;39898;41.762;26.200;2024-01-27T00:10:28;34.63;;;10.35;;
49934;SDS011;39898;41.762;26.200;2024-01-27T00:12:54;26.50;;;9.55;;
49934;SDS011;39898;41.762;26.200;2024-01-27T00:15:21;29.05;;;10.65;;
49934;SDS011;39898;41.762;26.200;2024-01-27T00:17:48;23.52;;;10.70;;
49934;SDS011;39898;41.762;26.200;2024-01-27T00:20:15;31.63;;;10.23;;
49934;SDS011;39898;41.762;26.200;2024-01-27T00:22:41;37.28;;;11.07;;
49934;SDS011;39898;41.762;26.200;2024-01-27T00:25:08;27.33;;;10.65;;
49934;SDS011;39898;41.762;26.200;2024-01-27T00:27:35;33.22;;;12.80;;
49934;SDS011;39898;41.762;26.200;2024-01-27T00:30:02;33.38;;;12.35;;
49934;SDS011;39898;41.762;26.200;2024-01-27T00:32:29;25.77;;;12.45;;
49934;SDS011;39898;41.762;26.200;2024-01-27T00:34:55;25.55;;;11.45;;
49934;SDS011;39898;41.762;26.200;2024-01-27T00:37:22;30.13;;;13.70;;
49934;SDS011;39898;41.762;26.200;2024-01-27T00:39:49;25.58;;;11.30;;
49934;SDS011;39898;41.762;26.200;2024-01-27T00:42:15;30.83;;;12.07;;
49934;SDS011;39898;41.762;26.200;2024-01-27T00:44:42;25.80;;;11.18;;
49934;SDS011;39898;41.762;26.200;2024-01-27T00:47:09;26.73;;;10.68;;
49934;SDS011;39898;41.762;26.200;2024-01-27T00:49:35;24.42;;;9.55;;
49934;SDS011;39898;41.762;26.200;2024-01-27T00:52:02;21.73;;;9.93;;
49934;SDS011;39898;41.762;26.200;2024-01-27T00:54:29;22.92;;;11.02;;
49934;SDS011;39898;41.762;26.200;2024-01-27T00:56:55;21.15;;;11.63;;
49934;SDS011;39898;41.762;26.200;2024-01-27T00:59:22;26.20;;;11.43;;
49934;SDS011;39898;41.762;26.200;2024-01-27T01:01:49;31.17;;;13.45;;
49934;SDS011;39898;41.762;26.200;2024-01-27T01:04:15;67.20;;;20.98;;
49934;SDS011;39898;41.762;26.200;2024-01-27T01:06:42;102.20;;;32.15;;
49934;SDS011;39898;41.762;26.200;2024-01-27T01:09:09;96.18;;;29.40;;
49934;SDS011;39898;41.762;26.200;2024-01-27T01:11:36;64.85;;;22.35;;
49934;SDS011;39898;41.762;26.200;2024-01-27T01:14:05;60.55;;;22.25;;
49934;SDS011;39898;41.762;26.200;2024-01-27T01:16:32;57.10;;;20.95;;
49934;SDS011;39898;41.762;26.200;2024-01-27T01:18:59;54.05;;;19.42;;
49934;SDS011;39898;41.762;26.200;2024-01-27T01:21:25;50.33;;;18.45;;
49934;SDS011;39898;41.762;26.200;2024-01-27T01:23:53;49.33;;;20.23;;
49934;SDS011;39898;41.762;26.200;2024-01-27T01:26:20;45.40;;;19.45;;
49934;SDS011;39898;41.762;26.200;2024-01-27T01:28:46;48.80;;;19.05;;
49934;SDS011;39898;41.762;26.200;2024-01-27T01:31:13;42.60;;;19.05;;
49934;SDS011;39898;41.762;26.200;2024-01-27T01:33:39;45.33;;;18.90;;
49934;SDS011;39898;41.762;26.200;2024-01-27T01:36:06;39.17;;;18.55;;
49934;SDS011;39898;41.762;26.200;2024-01-27T01:38:33;43.50;;;14.32;;
49934;SDS011;39898;41.762;26.200;2024-01-27T01:40:59;38.70;;;14.90;;
49934;SDS011;39898;41.762;26.200;2024-01-27T01:43:26;43.40;;;15.68;;
49934;SDS011;39898;41.762;26.200;2024-01-27T01:45:53;47.67;;;18.13;;
49934;SDS011;39898;41.762;26.200;2024-01-27T01:48:22;36.08;;;14.65;;
49934;SDS011;39898;41.762;26.200;2024-01-27T01:50:49;37.47;;;13.93;;
49934;SDS011;39898;41.762;26.200;2024-01-27T01:53:16;26.43;;;11.63;;
49934;SDS011;39898;41.762;26.200;2024-01-27T01:55:42;28.27;;;10.32;;
49934;SDS011;39898;41.762;26.200;2024-01-27T01:58:09;20.92;;;10.35;;
49934;SDS011;39898;41.762;26.200;2024-01-27T02:00:36;26.45;;;10.80;;
49934;SDS011;39898;41.762;26.200;2024-01-27T02:03:02;28.25;;;10.77;;
49934;SDS011;39898;41.762;26.200;2024-01-27T02:05:31;25.48;;;12.23;;
49934;SDS011;39898;41.762;26.200;2024-01-27T02:07:57;19.70;;;9.35;;
49934;SDS011;39898;41.762;26.200;2024-01-27T02:10:26;27.17;;;11.23;;
49934;SDS011;39898;41.762;26.200;2024-01-27T02:12:53;23.80;;;12.80;;
49934;SDS011;39898;41.762;26.200;2024-01-27T02:15:19;33.78;;;13.65;;
49934;SDS011;39898;41.762;26.200;2024-01-27T02:17:48;23.15;;;12.60;;
49934;SDS011;39898;41.762;26.200;2024-01-27T02:20:14;34.78;;;13.95;;
49934;SDS011;39898;41.762;26.200;2024-01-27T02:22:41;41.58;;;16.90;;
49934;SDS011;39898;41.762;26.200;2024-01-27T02:25:08;33.85;;;15.05;;
49934;SDS011;39898;41.762;26.200;2024-01-27T02:27:34;26.77;;;12.27;;
49934;SDS011;39898;41.762;26.200;2024-01-27T02:30:01;33.63;;;12.80;;
49934;SDS011;39898;41.762;26.200;2024-01-27T02:32:28;28.70;;;12.43;;
49934;SDS011;39898;41.762;26.200;2024-01-27T02:34:54;28.58;;;12.35;;
49934;SDS011;39898;41.762;26.200;2024-01-27T02:37:21;26.92;;;12.02;;
49934;SDS011;39898;41.762;26.200;2024-01-27T02:39:48;35.13;;;13.80;;
49934;SDS011;39898;41.762;26.200;2024-01-27T02:42:14;28.58;;;12.20;;
49934;SDS011;39898;41.762;26.200;2024-01-27T02:44:41;30.92;;;12.48;;
49934;SDS011;39898;41.762;26.200;2024-01-27T02:47:07;36.67;;;13.40;;
49934;SDS011;39898;41.762;26.200;2024-01-27T02:49:34;37.85;;;14.45;;
49934;SDS011;39898;41.762;26.200;2024-01-27T02:52:01;37.78;;;16.00;;
49934;SDS011;39898;41.762;26.200;2024-01-27T02:54:28;30.15;;;14.85;;
49934;SDS011;39898;41.762;26.200;2024-01-27T02:56:55;38.25;;;17.27;;
49934;SDS011;39898;41.762;26.200;2024-01-27T02:59:21;46.47;;;16.33;;
49934;SDS011;39898;41.762;26.200;2024-01-27T03:01:48;45.83;;;18.10;;
49934;SDS011;39898;41.762;26.200;2024-01-27T03:04:14;45.30;;;17.60;;
49934;SDS011;39898;41.762;26.200;2024-01-27T03:06:41;48.78;;;18.95;;
49934;SDS011;39898;41.762;26.200;2024-01-27T03:09:08;49.17;;;20.77;;
49934;SDS011;39898;41.762;26.200;2024-01-27T03:11:34;50.40;;;20.45;;
49934;SDS011;39898;41.762;26.200;2024-01-27T03:14:01;44.33;;;18.33;;
49934;SDS011;39898;41.762;26.200;2024-01-27T03:16:28;55.13;;;19.77;;
49934;SDS011;39898;41.762;26.200;2024-01-27T03:18:54;45.28;;;15.65;;
49934;SDS011;39898;41.762;26.200;2024-01-27T03:21:21;38.65;;;14.45;;
49934;SDS011;39898;41.762;26.200;2024-01-27T03:23:48;36.10;;;13.35;;
49934;SDS011;39898;41.762;26.200;2024-01-27T03:26:14;34.22;;;13.05;;
49934;SDS011;39898;41.762;26.200;2024-01-27T03:28:41;33.40;;;12.23;;
49934;SDS011;39898;41.762;26.200;2024-01-27T03:31:08;30.05;;;13.52;;
49934;SDS011;39898;41.762;26.200;2024-01-27T03:33:34;31.67;;;12.75;;
49934;SDS011;39898;41.762;26.200;2024-01-27T03:36:01;37.83;;;16.05;;
49934;SDS011;39898;41.762;26.200;2024-01-27T03:38:28;35.08;;;14.43;;
49934;SDS011;39898;41.762;26.200;2024-01-27T03:40:54;50.42;;;17.83;;
49934;SDS011;39898;41.762;26.200;2024-01-27T03:43:21;35.75;;;14.32;;
49934;SDS011;39898;41.762;26.200;2024-01-27T03:45:48;38.47;;;16.52;;
49934;SDS011;39898;41.762;26.200;2024-01-27T03:48:14;44.67;;;17.67;;
49934;SDS011;39898;41.762;26.200;2024-01-27T03:50:41;38.45;;;14.95;;
49934;SDS011;39898;41.762;26.200;2024-01-27T03:53:07;31.05;;;10.48;;
49934;SDS011;39898;41.762;26.200;2024-01-27T03:55:34;28.45;;;11.50;;
49934;SDS011;39898;41.762;26.200;2024-01-27T03:58:01;27.52;;;11.43;;
49934;SDS011;39898;41.762;26.200;2024-01-27T04:00:27;23.35;;;11.07;;
49934;SDS011;39898;41.762;26.200;2024-01-27T04:02:56;30.45;;;12.82;;
49934;SDS011;39898;41.762;26.200;2024-01-27T04:05:23;29.38;;;12.65;;
49934;SDS011;39898;41.762;26.200;2024-01-27T04:07:49;26.42;;;12.10;;
49934;SDS011;39898;41.762;26.200;2024-01-27T04:12:44;37.53;;;14.40;;
49934;SDS011;39898;41.762;26.200;2024-01-27T04:15:11;33.92;;;13.77;;
49934;SDS011;39898;41.762;26.200;2024-01-27T04:17:37;49.95;;;22.17;;
49934;SDS011;39898;41.762;26.200;2024-01-27T04:20:04;61.72;;;27.30;;
49934;SDS011;39898;41.762;26.200;2024-01-27T04:22:31;62.67;;;22.98;;
49934;SDS011;39898;41.762;26.200;2024-01-27T04:24:58;43.67;;;20.98;;
49934;SDS011;39898;41.762;26.200;2024-01-27T04:27:26;41.88;;;18.73;;
49934;SDS011;39898;41.762;26.200;2024-01-27T04:29:53;39.67;;;16.95;;
49934;SDS011;39898;41.762;26.200;2024-01-27T04:32:20;41.30;;;19.02;;
49934;SDS011;39898;41.762;26.200;2024-01-27T04:34:47;42.92;;;16.08;;
49934;SDS011;39898;41.762;26.200;2024-01-27T04:37:14;23.25;;;11.70;;
49934;SDS011;39898;41.762;26.200;2024-01-27T04:39:41;35.72;;;14.35;;
49934;SDS011;39898;41.762;26.200;2024-01-27T04:42:07;36.20;;;15.15;;
49934;SDS011;39898;41.762;26.200;2024-01-27T04:44:34;38.33;;;15.60;;
49934;SDS011;39898;41.762;26.200;2024-01-27T04:47:01;35.88;;;17.42;;
49934;SDS011;39898;41.762;26.200;2024-01-27T04:49:27;43.60;;;19.17;;
49934;SDS011;39898;41.762;26.200;2024-01-27T04:51:54;49.40;;;19.80;;
49934;SDS011;39898;41.762;26.200;2024-01-27T04:54:21;45.50;;;19.63;;
49934;SDS011;39898;41.762;26.200;2024-01-27T04:56:48;39.58;;;17.35;;
49934;SDS011;39898;41.762;26.200;2024-01-27T04:59:14;37.22;;;17.17;;
49934;SDS011;39898;41.762;26.200;2024-01-27T05:01:44;41.63;;;18.08;;
49934;SDS011;39898;41.762;26.200;2024-01-27T05:04:10;38.33;;;15.85;;
49934;SDS011;39898;41.762;26.200;2024-01-27T05:06:37;48.93;;;21.97;;
49934;SDS011;39898;41.762;26.200;2024-01-27T05:11:35;61.50;;;28.02;;
49934;SDS011;39898;41.762;26.200;2024-01-27T05:14:01;75.72;;;35.70;;
49934;SDS011;39898;41.762;26.200;2024-01-27T05:16:28;69.05;;;31.60;;
49934;SDS011;39898;41.762;26.200;2024-01-27T05:18:54;70.72;;;32.72;;
49934;SDS011;39898;41.762;26.200;2024-01-27T05:21:21;72.28;;;32.40;;
49934;SDS011;39898;41.762;26.200;2024-01-27T05:23:48;65.07;;;28.75;;
49934;SDS011;39898;41.762;26.200;2024-01-27T05:26:15;48.28;;;24.08;;
49934;SDS011;39898;41.762;26.200;2024-01-27T05:28:42;51.13;;;20.10;;
49934;SDS011;39898;41.762;26.200;2024-01-27T05:31:08;56.42;;;19.85;;
49934;SDS011;39898;41.762;26.200;2024-01-27T05:33:35;49.90;;;20.40;;
49934;SDS011;39898;41.762;26.200;2024-01-27T05:36:02;54.70;;;24.70;;
49934;SDS011;39898;41.762;26.200;2024-01-27T05:38:29;172.05;;;71.30;;
49934;SDS011;39898;41.762;26.200;2024-01-27T05:40:58;62.58;;;33.47;;
49934;SDS011;39898;41.762;26.200;2024-01-27T05:45:51;53.55;;;22.50;;
49934;SDS011;39898;41.762;26.200;2024-01-27T05:48:18;61.65;;;26.67;;
49934;SDS011;39898;41.762;26.200;2024-01-27T05:50:54;68.20;;;34.60;;
49934;SDS011;39898;41.762;26.200;2024-01-27T05:53:21;71.22;;;33.45;;
49934;SDS011;39898;41.762;26.200;2024-01-27T05:55:48;69.60;;;33.30;;
49934;SDS011;39898;41.762;26.200;2024-01-27T05:58:14;108.78;;;45.65;;
49934;SDS011;39898;41.762;26.200;2024-01-27T06:00:42;111.95;;;48.88;;
49934;SDS011;39898;41.762;26.200;2024-01-27T06:03:09;87.97;;;39.67;;
49934;SDS011;39898;41.762;26.200;2024-01-27T06:05:36;77.50;;;29.27;;
49934;SDS011;39898;41.762;26.200;2024-01-27T06:08:04;61.72;;;30.05;;
49934;SDS011;39898;41.762;26.200;2024-01-27T06:10:30;73.60;;;30.85;;
49934;SDS011;39898;41.762;26.200;2024-01-27T06:12:57;73.13;;;33.08;;
49934;SDS011;39898;41.762;26.200;2024-01-27T06:15:24;83.72;;;33.70;;
49934;SDS011;39898;41.762;26.200;2024-01-27T06:17:51;83.78;;;36.08;;
49934;SDS011;39898;41.762;26.200;2024-01-27T06:20:17;92.22;;;38.38;;
49934;SDS011;39898;41.762;26.200;2024-01-27T06:22:45;79.20;;;36.70;;
49934;SDS011;39898;41.762;26.200;2024-01-27T06:25:12;88.55;;;36.75;;
49934;SDS011;39898;41.762;26.200;2024-01-27T06:27:38;84.68;;;37.97;;
49934;SDS011;39898;41.762;26.200;2024-01-27T06:30:07;95.05;;;39.47;;
49934;SDS011;39898;41.762;26.200;2024-01-27T06:32:34;89.27;;;38.10;;
49934;SDS011;39898;41.762;26.200;2024-01-27T06:35:01;83.78;;;36.55;;
49934;SDS011;39898;41.762;26.200;2024-01-27T06:37:27;62.75;;;28.38;;
49934;SDS011;39898;41.762;26.200;2024-01-27T06:39:54;64.57;;;28.95;;
49934;SDS011;39898;41.762;26.200;2024-01-27T06:42:20;84.40;;;35.08;;
49934;SDS011;39898;41.762;26.200;2024-01-27T06:44:47;103.15;;;41.55;;
49934;SDS011;39898;41.762;26.200;2024-01-27T06:47:14;136.05;;;58.90;;
49934;SDS011;39898;41.762;26.200;2024-01-27T06:49:40;159.43;;;66.85;;
49934;SDS011;39898;41.762;26.200;2024-01-27T06:52:07;167.77;;;65.47;;
49934;SDS011;39898;41.762;26.200;2024-01-27T06:54:33;159.57;;;63.90;;
49934;SDS011;39898;41.762;26.200;2024-01-27T06:57:01;175.35;;;72.97;;
49934;SDS011;39898;41.762;26.200;2024-01-27T06:59:32;213.98;;;75.22;;
49934;SDS011;39898;41.762;26.200;2024-01-27T07:01:58;204.77;;;75.63;;
49934;SDS011;39898;41.762;26.200;2024-01-27T07:04:25;197.68;;;71.40;;
49934;SDS011;39898;41.762;26.200;2024-01-27T07:06:52;143.80;;;56.55;;
49934;SDS011;39898;41.762;26.200;2024-01-27T07:09:19;152.10;;;61.65;;
49934;SDS011;39898;41.762;26.200;2024-01-27T07:11:46;135.63;;;56.07;;
49934;SDS011;39898;41.762;26.200;2024-01-27T07:14:12;112.00;;;46.40;;
49934;SDS011;39898;41.762;26.200;2024-01-27T07:16:39;160.00;;;69.18;;
49934;SDS011;39898;41.762;26.200;2024-01-27T07:19:06;101.60;;;43.25;;
49934;SDS011;39898;41.762;26.200;2024-01-27T07:21:33;94.87;;;40.27;;
49934;SDS011;39898;41.762;26.200;2024-01-27T07:24:00;93.82;;;39.58;;
49934;SDS011;39898;41.762;26.200;2024-01-27T07:26:27;117.85;;;44.78;;
49934;SDS011;39898;41.762;26.200;2024-01-27T07:28:53;123.43;;;47.75;;
49934;SDS011;39898;41.762;26.200;2024-01-27T07:31:20;109.10;;;43.13;;
49934;SDS011;39898;41.762;26.200;2024-01-27T07:33:47;89.20;;;37.90;;
49934;SDS011;39898;41.762;26.200;2024-01-27T07:36:15;84.68;;;35.65;;
49934;SDS011;39898;41.762;26.200;2024-01-27T07:38:42;79.03;;;28.30;;
49934;SDS011;39898;41.762;26.200;2024-01-27T07:41:09;75.43;;;33.85;;
49934;SDS011;39898;41.762;26.200;2024-01-27T07:43:35;100.32;;;40.80;;
49934;SDS011;39898;41.762;26.200;2024-01-27T07:46:02;106.82;;;45.97;;
49934;SDS011;39898;41.762;26.200;2024-01-27T07:48:28;88.93;;;40.85;;
49934;SDS011;39898;41.762;26.200;2024-01-27T07:50:55;118.85;;;46.85;;
49934;SDS011;39898;41.762;26.200;2024-01-27T07:53:23;98.35;;;46.08;;
49934;SDS011;39898;41.762;26.200;2024-01-27T07:55:49;113.70;;;47.60;;
49934;SDS011;39898;41.762;26.200;2024-01-27T07:58:17;109.35;;;51.67;;
49934;SDS011;39898;41.762;26.200;2024-01-27T08:00:43;170.40;;;61.63;;
49934;SDS011;39898;41.762;26.200;2024-01-27T08:03:11;167.90;;;61.45;;
49934;SDS011;39898;41.762;26.200;2024-01-27T08:05:37;136.10;;;50.55;;
49934;SDS011;39898;41.762;26.200;2024-01-27T08:08:04;66.75;;;29.52;;
49934;SDS011;39898;41.762;26.200;2024-01-27T08:10:31;57.88;;;26.15;;
49934;SDS011;39898;41.762;26.200;2024-01-27T08:12:57;61.50;;;25.35;;
49934;SDS011;39898;41.762;26.200;2024-01-27T08:15:24;73.75;;;33.72;;
49934;SDS011;39898;41.762;26.200;2024-01-27T08:17:50;103.90;;;39.88;;
49934;SDS011;39898;41.762;26.200;2024-01-27T08:20:17;84.50;;;31.80;;
49934;SDS011;39898;41.762;26.200;2024-01-27T08:22:44;71.80;;;26.65;;
49934;SDS011;39898;41.762;26.200;2024-01-27T08:25:10;44.85;;;19.88;;
49934;SDS011;39898;41.762;26.200;2024-01-27T08:27:37;86.50;;;33.92;;
49934;SDS011;39898;41.762;26.200;2024-01-27T08:30:05;124.10;;;37.85;;
49934;SDS011;39898;41.762;26.200;2024-01-27T08:35:01;78.78;;;25.98;;
49934;SDS011;39898;41.762;26.200;2024-01-27T08:37:28;138.93;;;44.95;;
49934;SDS011;39898;41.762;26.200;2024-01-27T08:39:54;191.85;;;56.17;;
49934;SDS011;39898;41.762;26.200;2024-01-27T08:42:21;129.75;;;39.17;;
49934;SDS011;39898;41.762;26.200;2024-01-27T08:44:47;147.75;;;46.63;;
49934;SDS011;39898;41.762;26.200;2024-01-27T08:47:14;192.43;;;59.97;;
49934;SDS011;39898;41.762;26.200;2024-01-27T08:49:41;236.32;;;73.65;;
49934;SDS011;39898;41.762;26.200;2024-01-27T08:52:08;126.70;;;41.05;;
49934;SDS011;39898;41.762;26.200;2024-01-27T08:54:34;187.40;;;58.03;;
49934;SDS011;39898;41.762;26.200;2024-01-27T08:57:01;71.35;;;24.95;;
49934;SDS011;39898;41.762;26.200;2024-01-27T08:59:28;53.35;;;24.02;;
49934;SDS011;39898;41.762;26.200;2024-01-27T09:01:55;53.08;;;21.70;;
49934;SDS011;39898;41.762;26.200;2024-01-27T09:04:22;52.47;;;22.73;;
49934;SDS011;39898;41.762;26.200;2024-01-27T09:06:48;50.45;;;21.95;;
49934;SDS011;39898;41.762;26.200;2024-01-27T09:09:15;39.70;;;18.83;;
49934;SDS011;39898;41.762;26.200;2024-01-27T09:11:42;36.15;;;17.75;;
49934;SDS011;39898;41.762;26.200;2024-01-27T09:14:09;39.72;;;15.65;;
49934;SDS011;39898;41.762;26.200;2024-01-27T09:16:36;28.95;;;12.68;;
49934;SDS011;39898;41.762;26.200;2024-01-27T09:19:03;33.13;;;15.02;;
49934;SDS011;39898;41.762;26.200;2024-01-27T09:21:30;35.35;;;13.45;;
49934;SDS011;39898;41.762;26.200;2024-01-27T09:23:59;31.10;;;13.25;;
49934;SDS011;39898;41.762;26.200;2024-01-27T09:26:28;35.38;;;16.15;;
49934;SDS011;39898;41.762;26.200;2024-01-27T09:28:54;41.30;;;16.17;;
49934;SDS011;39898;41.762;26.200;2024-01-27T09:31:21;32.10;;;13.50;;
49934;SDS011;39898;41.762;26.200;2024-01-27T09:33:51;43.50;;;16.77;;
49934;SDS011;39898;41.762;26.200;2024-01-27T09:36:19;49.28;;;23.95;;
49934;SDS011;39898;41.762;26.200;2024-01-27T09:38:46;42.00;;;21.70;;
49934;SDS011;39898;41.762;26.200;2024-01-27T09:41:13;36.33;;;18.17;;
49934;SDS011;39898;41.762;26.200;2024-01-27T09:43:42;51.78;;;22.90;;
49934;SDS011;39898;41.762;26.200;2024-01-27T09:46:08;44.25;;;22.30;;
49934;SDS011;39898;41.762;26.200;2024-01-27T09:48:35;74.40;;;33.40;;
49934;SDS011;39898;41.762;26.200;2024-01-27T09:51:03;63.10;;;23.45;;
49934;SDS011;39898;41.762;26.200;2024-01-27T09:55:57;46.17;;;22.25;;
49934;SDS011;39898;41.762;26.200;2024-01-27T10:00:53;52.33;;;22.45;;
49934;SDS011;39898;41.762;26.200;2024-01-27T10:03:25;70.22;;;30.95;;
49934;SDS011;39898;41.762;26.200;2024-01-27T10:05:56;87.82;;;40.90;;
49934;SDS011;39898;41.762;26.200;2024-01-27T10:08:23;144.30;;;60.58;;
49934;SDS011;39898;41.762;26.200;2024-01-27T10:10:54;175.23;;;73.35;;
49934;SDS011;39898;41.762;26.200;2024-01-27T10:13:21;176.23;;;72.22;;
49934;SDS011;39898;41.762;26.200;2024-01-27T10:15:59;221.40;;;88.57;;
49934;SDS011;39898;41.762;26.200;2024-01-27T10:18:25;187.13;;;78.22;;
49934;SDS011;39898;41.762;26.200;2024-01-27T10:20:52;159.40;;;64.68;;
49934;SDS011;39898;41.762;26.200;2024-01-27T10:23:19;120.63;;;53.97;;
49934;SDS011;39898;41.762;26.200;2024-01-27T10:25:45;129.82;;;53.67;;
49934;SDS011;39898;41.762;26.200;2024-01-27T10:28:12;167.00;;;70.90;;
49934;SDS011;39898;41.762;26.200;2024-01-27T10:30:38;253.68;;;101.05;;
49934;SDS011;39898;41.762;26.200;2024-01-27T10:33:08;198.68;;;85.10;;
49934;SDS011;39898;41.762;26.200;2024-01-27T10:35:41;214.52;;;93.38;;
49934;SDS011;39898;41.762;26.200;2024-01-27T10:38:09;206.82;;;81.85;;
49934;SDS011;39898;41.762;26.200;2024-01-27T10:40:36;223.45;;;78.38;;
49934;SDS011;39898;41.762;26.200;2024-01-27T10:43:04;219.35;;;80.60;;
49934;SDS011;39898;41.762;26.200;2024-01-27T10:45:37;161.80;;;69.28;;
49934;SDS011;39898;41.762;26.200;2024-01-27T10:48:05;142.82;;;67.53;;
49934;SDS011;39898;41.762;26.200;2024-01-27T10:50:36;140.20;;;68.68;;
49934;SDS011;39898;41.762;26.200;2024-01-27T10:53:19;140.00;;;72.38;;
49934;SDS011;39898;41.762;26.200;2024-01-27T10:55:47;71.85;;;30.95;;
49934;SDS011;39898;41.762;26.200;2024-01-27T10:58:14;66.05;;;28.63;;
49934;SDS011;39898;41.762;26.200;2024-01-27T11:00:41;67.57;;;31.70;;
49934;SDS011;39898;41.762;26.200;2024-01-27T11:03:09;62.22;;;31.52;;
49934;SDS011;39898;41.762;26.200;2024-01-27T11:05:37;72.18;;;31.77;;
49934;SDS011;39898;41.762;26.200;2024-01-27T11:08:06;57.50;;;28.42;;
49934;SDS011;39898;41.762;26.200;2024-01-27T11:10:35;58.85;;;26.48;;
49934;SDS011;39898;41.762;26.200;2024-01-27T11:13:04;72.57;;;35.92;;
49934;SDS011;39898;41.762;26.200;2024-01-27T11:15:32;118.40;;;55.95;;
49934;SDS011;39898;41.762;26.200;2024-01-27T11:17:59;109.57;;;47.30;;
49934;SDS011;39898;41.762;26.200;2024-01-27T11:20:30;111.38;;;58.78;;
49934;SDS011;39898;41.762;26.200;2024-01-27T11:23:08;97.17;;;49.40;;
49934;SDS011;39898;41.762;26.200;2024-01-27T11:25:34;81.28;;;43.08;;
49934;SDS011;39898;41.762;26.200;2024-01-27T11:28:10;87.30;;;44.55;;
49934;SDS011;39898;41.762;26.200;2024-01-27T11:30:36;81.63;;;40.00;;
49934;SDS011;39898;41.762;26.200;2024-01-27T11:33:06;86.55;;;39.83;;
49934;SDS011;39898;41.762;26.200;2024-01-27T11:35:34;114.63;;;54.25;;
49934;SDS011;39898;41.762;26.200;2024-01-27T11:38:01;163.05;;;72.78;;
49934;SDS011;39898;41.762;26.200;2024-01-27T11:40:28;117.90;;;55.08;;
49934;SDS011;39898;41.762;26.200;2024-01-27T11:45:22;80.27;;;39.57;;
49934;SDS011;39898;41.762;26.200;2024-01-27T11:47:49;56.38;;;31.80;;
49934;SDS011;39898;41.762;26.200;2024-01-27T11:50:19;51.93;;;25.90;;
49934;SDS011;39898;41.762;26.200;2024-01-27T11:52:47;45.22;;;25.67;;
49934;SDS011;39898;41.762;26.200;2024-01-27T11:55:13;42.85;;;18.88;;
49934;SDS011;39898;41.762;26.200;2024-01-27T11:57:45;48.08;;;21.45;;
49934;SDS011;39898;41.762;26.200;2024-01-27T12:00:11;66.70;;;32.33;;
49934;SDS011;39898;41.762;26.200;2024-01-27T12:02:38;48.88;;;21.30;;
49934;SDS011;39898;41.762;26.200;2024-01-27T12:05:05;46.28;;;23.02;;
49934;SDS011;39898;41.762;26.200;2024-01-27T12:07:32;86.63;;;37.20;;
49934;SDS011;39898;41.762;26.200;2024-01-27T12:09:59;32.10;;;16.88;;
49934;SDS011;39898;41.762;26.200;2024-01-27T12:12:26;39.42;;;19.23;;
49934;SDS011;39898;41.762;26.200;2024-01-27T12:14:53;57.08;;;26.05;;
49934;SDS011;39898;41.762;26.200;2024-01-27T12:17:19;66.15;;;29.60;;
49934;SDS011;39898;41.762;26.200;2024-01-27T12:19:47;33.47;;;16.30;;
49934;SDS011;39898;41.762;26.200;2024-01-27T12:22:26;35.75;;;19.60;;
49934;SDS011;39898;41.762;26.200;2024-01-27T12:24:54;33.85;;;15.63;;
49934;SDS011;39898;41.762;26.200;2024-01-27T12:27:23;61.67;;;28.27;;
49934;SDS011;39898;41.762;26.200;2024-01-27T12:29:51;47.65;;;23.45;;
49934;SDS011;39898;41.762;26.200;2024-01-27T12:32:18;70.85;;;36.75;;
49934;SDS011;39898;41.762;26.200;2024-01-27T12:34:45;42.78;;;19.70;;
49934;SDS011;39898;41.762;26.200;2024-01-27T12:37:12;46.83;;;20.48;;
49934;SDS011;39898;41.762;26.200;2024-01-27T12:39:42;29.38;;;16.45;;
49934;SDS011;39898;41.762;26.200;2024-01-27T12:42:10;41.35;;;17.98;;
49934;SDS011;39898;41.762;26.200;2024-01-27T12:44:37;77.60;;;29.63;;
49934;SDS011;39898;41.762;26.200;2024-01-27T12:47:04;37.25;;;16.55;;
49934;SDS011;39898;41.762;26.200;2024-01-27T12:49:30;30.05;;;14.40;;
49934;SDS011;39898;41.762;26.200;2024-01-27T12:51:57;31.25;;;15.82;;
49934;SDS011;39898;41.762;26.200;2024-01-27T12:54:24;46.95;;;20.67;;
49934;SDS011;39898;41.762;26.200;2024-01-27T12:56:50;40.45;;;16.05;;
49934;SDS011;39898;41.762;26.200;2024-01-27T12:59:17;25.50;;;10.68;;
49934;SDS011;39898;41.762;26.200;2024-01-27T13:01:44;27.33;;;11.57;;
49934;SDS011;39898;41.762;26.200;2024-01-27T13:04:10;32.42;;;15.63;;
49934;SDS011;39898;41.762;26.200;2024-01-27T13:06:37;60.92;;;26.52;;
49934;SDS011;39898;41.762;26.200;2024-01-27T13:09:04;96.50;;;39.43;;
49934;SDS011;39898;41.762;26.200;2024-01-27T13:11:31;179.20;;;67.82;;
49934;SDS011;39898;41.762;26.200;2024-01-27T13:13:57;64.63;;;29.88;;
49934;SDS011;39898;41.762;26.200;2024-01-27T13:16:24;59.55;;;29.40;;
49934;SDS011;39898;41.762;26.200;2024-01-27T13:18:51;53.05;;;25.90;;
49934;SDS011;39898;41.762;26.200;2024-01-27T13:21:18;114.32;;;50.75;;
49934;SDS011;39898;41.762;26.200;2024-01-27T13:26:12;88.82;;;35.03;;
49934;SDS011;39898;41.762;26.200;2024-01-27T13:28:45;128.77;;;57.08;;
49934;SDS011;39898;41.762;26.200;2024-01-27T13:31:12;150.65;;;68.85;;
49934;SDS011;39898;41.762;26.200;2024-01-27T13:33:38;120.25;;;56.58;;
49934;SDS011;39898;41.762;26.200;2024-01-27T13:36:05;348.92;;;136.75;;
49934;SDS011;39898;41.762;26.200;2024-01-27T13:38:32;132.73;;;56.83;;
49934;SDS011;39898;41.762;26.200;2024-01-27T13:41:00;97.18;;;48.45;;
49934;SDS011;39898;41.762;26.200;2024-01-27T13:43:26;62.50;;;32.83;;
49934;SDS011;39898;41.762;26.200;2024-01-27T13:45:53;56.13;;;31.02;;
49934;SDS011;39898;41.762;26.200;2024-01-27T13:48:21;129.82;;;58.67;;
49934;SDS011;39898;41.762;26.200;2024-01-27T13:50:49;167.43;;;79.50;;
49934;SDS011;39898;41.762;26.200;2024-01-27T13:53:15;142.00;;;69.50;;
49934;SDS011;39898;41.762;26.200;2024-01-27T13:55:42;90.13;;;43.75;;
49934;SDS011;39898;41.762;26.200;2024-01-27T14:00:36;191.27;;;82.63;;
49934;SDS011;39898;41.762;26.200;2024-01-27T14:03:03;116.13;;;60.45;;
49934;SDS011;39898;41.762;26.200;2024-01-27T14:05:30;33.25;;;16.60;;
49934;SDS011;39898;41.762;26.200;2024-01-27T14:07:56;34.65;;;16.98;;
49934;SDS011;39898;41.762;26.200;2024-01-27T14:10:23;31.92;;;15.88;;
49934;SDS011;39898;41.762;26.200;2024-01-27T14:12:51;59.88;;;28.50;;
49934;SDS011;39898;41.762;26.200;2024-01-27T14:15:18;38.70;;;20.23;;
49934;SDS011;39898;41.762;26.200;2024-01-27T14:17:45;38.97;;;14.85;;
49934;SDS011;39898;41.762;26.200;2024-01-27T14:20:12;43.72;;;20.63;;
49934;SDS011;39898;41.762;26.200;2024-01-27T14:22:39;72.07;;;34.35;;
49934;SDS011;39898;41.762;26.200;2024-01-27T14:25:05;82.53;;;35.92;;
49934;SDS011;39898;41.762;26.200;2024-01-27T14:27:34;67.45;;;31.58;;